Terminal Aerodrome Forecast
Issued by NWS Shreveport, LA

Home | Current Version | Previous Version | Text Only | Print | Product List | Glossary On
Versions: 1 2 3 4 5 6 7 8 9 10 11 12
000
FTUS44 KSHV 290500
TAFTYR
TAF
KTYR 290520Z 2906/3006 19014KT P6SM SCT015
      TEMPO 2908/2912 BKN008
     FM291200 19013KT P6SM BKN008
      TEMPO 2912/2914 SCT008
     FM291400 21014G21KT P6SM SCT025
     FM291600 21018G32KT P6SM SCT035
     FM292300 18012G20KT P6SM SCT045=

USA.gov is the U.S. government's official web portal to all federal, state and local government web resources and services.